Lansford, Pennsylvania
Current Conditions -  °F | °C
As of 2:55 PM on Thursday 30 Oct 2014 (Local Time) from KHZL Reporting Station
Overcast Overcast  
Wind Chill: 44°   Ceiling: 3700
Heat Index: 46°   Visibility: 10mi
Dew Point: 32°   Wind: 5mph
Humidity: 57%   Direction: 310°NW
Pressure: 30.02"   Gusts: NA
Location:  40.83°N, 75.88°W
Report Text: KHZL 301855Z AUTO 31004KT 10SM OVC037 08/00 A3002 RMK AO2
Loading
Personal Weather Stations






























Interactive Weather Map
Tropical Storm Tracking
New forecast layout! Learn more

10-Day Weather Forecast

Advertisements
Track Severe Weather on mobile